キエフ/ボリースピリ の空港の天気 - METARとTAF

ボリースピリ国際空港(キエフ) ( UKBB / KBP ) - ウクライナ ボリスピリ (キエフ近郊)
飛行場実況気象(Metar)
観測時間10/19 21:30 EEST (10/19 18:30 UTC)
風向・風速北西 1m/s
視程9000m
天気現象
なし
気温9℃
湿度93%
気圧1017hPa
METARUKBB 191830Z 32001MPS 9000 NSC 09/08 Q1017 R88/CLRD// NOSIG
過去の天気等 Google飛行場航空写真 Wunderground天気予報

過去48時間のMETAR

飛行場予報(TAF)
発表時間: 10/19 20:01 EEST (10/19 17:01 UTC)
予報対象時間: 19日21時 EEST ~ 20日21時 EEST
風向・風速北北西 3m/s
視程6000m
全天の8割程度の雲 雲底高度 1220m
19日21時 EEST ~ 20日9時 EEST に一時的に
視程1200m
天気現象もや 煙
全天の8割程度の雲 雲底高度 210m
20日3時 EEST ~ 20日9時 EEST に 確率 40% で一時的に
視程300m
天気現象
全天を覆う雲 鉛直視程 90m
20日9時 EEST ~ 20日11時 EEST に徐々に
風向・風速北 5m/s 瞬間風速 10m/s
視程10km以上
全天の8割程度の雲 雲底高度 610m
TAF UKBB 191701Z 1918/2018 34003MPS 6000 BKN040 TX15/2012Z TN04/2004Z
TEMPO 1918/2006 1200 BR FU BKN007
PROB40 TEMPO 2000/2006 0300 FG VV003
BECMG 2006/2008 36005G10MPS 9999 BKN020